createdAt,value
2019-02-11T00:00:07.796Z,92.76
2019-02-11T00:01:07.824Z,92.86
2019-02-11T00:02:07.820Z,92.97
2019-02-11T00:03:07.761Z,92.86
2019-02-11T00:04:07.755Z,92.86
2019-02-11T00:05:07.740Z,92.76
2019-02-11T00:06:07.738Z,91.83
2019-02-11T00:07:07.719Z,92.35
2019-02-11T00:08:07.747Z,93.18
2019-02-11T00:09:07.700Z,92.86
2019-02-11T00:10:07.688Z,92.86
2019-02-11T00:11:07.679Z,92.97
2019-02-11T00:12:07.670Z,93.28
2019-02-11T00:13:10.605Z,93.59
2019-02-11T00:14:07.685Z,93.18
2019-02-11T00:15:07.638Z,93.28
2019-02-11T00:16:07.624Z,92.97
2019-02-11T00:17:07.615Z,92.86
2019-02-11T00:18:07.602Z,92.14
2019-02-11T00:19:07.632Z,92.66
2019-02-11T00:20:07.577Z,92.93
2019-02-11T00:21:07.614Z,92.45
2019-02-11T00:22:07.557Z,92.86
2019-02-11T00:23:07.543Z,92.76
2019-02-11T00:24:07.578Z,93.59
2019-02-11T00:25:07.526Z,93.28
2019-02-11T00:26:07.515Z,92.97
2019-02-11T00:27:07.502Z,92.86
2019-02-11T00:28:07.495Z,92.86
2019-02-11T00:29:07.492Z,92.76
2019-02-11T00:30:07.521Z,93.59
2019-02-11T00:31:07.462Z,93.18
2019-02-11T00:32:07.455Z,93.59
2019-02-11T00:33:07.438Z,93.38
2019-02-11T00:34:07.435Z,93.28
2019-02-11T00:35:07.416Z,93.59
2019-02-11T00:36:07.444Z,93.28
2019-02-11T00:37:07.395Z,93.38
2019-02-11T00:38:07.387Z,93.18
2019-02-11T00:39:07.377Z,93.07
2019-02-11T00:40:07.364Z,93.18
2019-02-11T00:41:07.390Z,93.49
2019-02-11T00:42:07.341Z,92.86
2019-02-11T00:43:07.335Z,92.97
2019-02-11T00:44:07.355Z,93.59
2019-02-11T00:45:07.349Z,93.59
2019-02-11T00:46:07.297Z,93.80
2019-02-11T00:47:07.284Z,93.80
2019-02-11T00:48:07.331Z,93.28
2019-02-11T00:49:07.266Z,94.11
2019-02-11T00:50:07.253Z,94.11
2019-02-11T00:51:07.288Z,93.70
2019-02-11T00:52:07.231Z,93.80
2019-02-11T00:53:07.260Z,93.53
2019-02-11T00:54:07.249Z,93.84
2019-02-11T00:55:07.199Z,94.01
2019-02-11T00:56:07.190Z,93.74
2019-02-11T00:57:07.176Z,94.42
2019-02-11T00:58:07.168Z,93.95
2019-02-11T00:59:07.196Z,94.63
2019-02-11T01:00:07.144Z,94.57
2019-02-11T01:01:07.131Z,94.57
2019-02-11T01:02:07.123Z,94.46
2019-02-11T01:03:07.115Z,93.84
2019-02-11T01:04:07.108Z,93.70
2019-02-11T01:05:07.134Z,93.43
2019-02-11T01:06:07.079Z,93.01
2019-02-11T01:07:07.726Z,93.63
2019-02-11T01:08:07.057Z,94.15
2019-02-11T01:09:07.047Z,93.22
2019-02-11T01:10:07.036Z,93.84
2019-02-11T01:11:07.070Z,93.84
2019-02-11T01:12:07.021Z,93.43
2019-02-11T01:13:07.002Z,93.01
2019-02-11T01:14:07.034Z,93.22
2019-02-11T01:15:06.984Z,93.53
2019-02-11T01:16:06.973Z,93.53
2019-02-11T01:17:06.963Z,93.22
2019-02-11T01:18:06.988Z,93.63
2019-02-11T01:19:06.943Z,93.53
2019-02-11T01:20:06.967Z,93.84
2019-02-11T01:21:06.914Z,94.46
2019-02-11T01:22:06.912Z,94.67
2019-02-11T01:23:06.894Z,94.36
2019-02-11T01:24:06.887Z,93.95
2019-02-11T01:25:06.876Z,94.05
2019-02-11T01:26:06.912Z,94.51
2019-02-11T01:27:06.877Z,94.67
2019-02-11T01:28:06.897Z,94.09
2019-02-11T01:29:06.829Z,94.71
2019-02-11T01:30:06.871Z,93.68
2019-02-11T01:31:06.807Z,93.47
2019-02-11T01:32:06.800Z,93.82
2019-02-11T01:33:06.796Z,93.68
2019-02-11T01:34:06.780Z,94.20
2019-02-11T01:35:06.768Z,93.78
2019-02-11T01:36:06.827Z,93.99
2019-02-11T01:37:06.781Z,94.71
2019-02-11T01:38:06.734Z,94.92
2019-02-11T01:39:06.765Z,94.92
2019-02-11T01:40:06.716Z,95.07
2019-02-11T01:41:06.702Z,95.13
2019-02-11T01:42:06.694Z,95.79
2019-02-11T01:43:06.680Z,94.82
2019-02-11T01:44:06.667Z,95.07
2019-02-11T01:45:06.701Z,95.34
2019-02-11T01:46:06.644Z,95.44
2019-02-11T01:47:06.633Z,95.48
2019-02-11T01:48:06.629Z,95.38
2019-02-11T01:49:06.613Z,95.28
2019-02-11T01:50:06.604Z,94.92
2019-02-11T01:51:06.632Z,94.86
2019-02-11T01:52:06.587Z,94.76
2019-02-11T01:53:06.565Z,95.23
2019-02-11T01:54:06.560Z,94.96
2019-02-11T01:55:06.547Z,95.17
2019-02-11T01:56:06.588Z,95.07
2019-02-11T01:57:06.530Z,94.96
2019-02-11T01:58:06.528Z,95.28
2019-02-11T01:59:06.502Z,94.96
2019-02-11T02:00:06.495Z,94.92
2019-02-11T02:01:06.486Z,94.65
2019-02-11T02:02:06.518Z,95.17
2019-02-11T02:03:06.472Z,95.17
2019-02-11T02:04:06.447Z,94.76
2019-02-11T02:05:06.437Z,94.45
2019-02-11T02:06:06.443Z,94.65
2019-02-11T02:07:06.459Z,95.17
2019-02-11T02:08:06.406Z,94.96
2019-02-11T02:09:06.393Z,95.07
2019-02-11T02:10:06.381Z,95.79
2019-02-11T02:11:06.381Z,95.79
2019-02-11T02:12:06.366Z,95.79
2019-02-11T02:13:06.390Z,95.48
2019-02-11T02:14:06.338Z,95.59
2019-02-11T02:15:06.329Z,95.48
2019-02-11T02:16:06.322Z,95.69
2019-02-11T02:17:06.321Z,95.38
2019-02-11T02:18:06.333Z,95.07
2019-02-11T02:19:06.286Z,94.96
2019-02-11T02:20:06.278Z,95.59
2019-02-11T02:21:06.263Z,95.07
2019-02-11T02:22:06.294Z,95.59
2019-02-11T02:23:06.250Z,95.44
2019-02-11T02:24:06.228Z,95.07
2019-02-11T02:25:06.222Z,94.92
2019-02-11T02:26:06.212Z,95.17
2019-02-11T02:27:06.240Z,94.71
2019-02-11T02:28:06.229Z,94.51
2019-02-11T02:29:06.178Z,94.51
2019-02-11T02:30:06.174Z,94.20
2019-02-11T02:31:06.161Z,94.51
2019-02-11T02:32:06.156Z,94.61
2019-02-11T02:33:06.131Z,94.51
2019-02-11T02:34:06.164Z,94.92
2019-02-11T02:35:06.110Z,94.46
2019-02-11T02:36:06.115Z,94.61
2019-02-11T02:37:06.089Z,94.36
2019-02-11T02:38:06.080Z,94.57
2019-02-11T02:39:06.109Z,94.51
2019-02-11T02:40:06.060Z,94.36
2019-02-11T02:41:06.046Z,94.57
2019-02-11T02:42:06.041Z,94.36
2019-02-11T02:43:06.032Z,94.57
2019-02-11T02:44:06.015Z,93.43
2019-02-11T02:45:06.041Z,93.74
2019-02-11T02:46:06.038Z,93.74
2019-02-11T02:47:05.982Z,93.74
2019-02-11T02:48:05.971Z,93.99
2019-02-11T02:49:06.004Z,93.74
2019-02-11T02:50:05.948Z,94.36
2019-02-11T02:51:05.943Z,94.46
2019-02-11T02:52:05.928Z,94.71
2019-02-11T02:53:05.915Z,94.30
2019-02-11T02:54:05.913Z,94.57
2019-02-11T02:55:05.936Z,93.84
2019-02-11T02:56:05.885Z,93.43
2019-02-11T02:57:05.868Z,93.01
2019-02-11T02:58:05.862Z,93.95
2019-02-11T02:59:05.901Z,93.74
2019-02-11T03:00:05.843Z,93.32
2019-02-11T03:01:05.829Z,92.90
2019-02-11T03:02:05.817Z,92.90
2019-02-11T03:03:05.815Z,93.18
2019-02-11T03:04:05.800Z,92.18
2019-02-11T03:05:05.812Z,92.28
2019-02-11T03:06:05.778Z,92.45
2019-02-11T03:07:05.762Z,92.18
2019-02-11T03:08:05.758Z,92.45
2019-02-11T03:09:05.777Z,92.35
2019-02-11T03:10:05.731Z,91.83
2019-02-11T03:11:05.722Z,92.14
2019-02-11T03:12:05.707Z,92.45
2019-02-11T03:13:05.742Z,91.93
2019-02-11T03:14:06.483Z,91.62
2019-02-11T03:15:05.679Z,91.37
2019-02-11T03:16:05.672Z,91.68
2019-02-11T03:17:05.686Z,91.37
2019-02-11T03:18:05.647Z,91.78
2019-02-11T03:19:05.651Z,91.16
2019-02-11T03:20:05.625Z,91.58
2019-02-11T03:21:05.618Z,91.06
2019-02-11T03:22:05.602Z,91.27
2019-02-11T03:23:05.620Z,91.27
2019-02-11T03:24:05.606Z,91.12
2019-02-11T03:25:05.583Z,90.54
2019-02-11T03:26:05.557Z,91.02
2019-02-11T03:27:05.548Z,90.44
2019-02-11T03:28:05.541Z,90.08
2019-02-11T03:29:05.524Z,89.98
2019-02-11T03:30:05.562Z,90.54
2019-02-11T03:31:05.506Z,90.29
2019-02-11T03:32:05.497Z,89.67
2019-02-11T03:33:05.480Z,89.36
2019-02-11T03:34:05.511Z,89.56
2019-02-11T03:35:05.463Z,89.98
2019-02-11T03:36:05.458Z,90.08
2019-02-11T03:37:05.436Z,89.56
2019-02-11T03:38:05.426Z,90.39
2019-02-11T03:39:05.417Z,89.67
2019-02-11T03:40:05.433Z,90.60
2019-02-11T03:41:05.394Z,89.98
2019-02-11T03:42:05.422Z,89.98
2019-02-11T03:43:05.373Z,90.29
2019-02-11T03:44:14.616Z,91.28
2019-02-11T03:45:06.351Z,90.91
2019-02-11T03:46:05.345Z,90.91
2019-02-11T03:47:05.359Z,91.02
2019-02-11T03:48:05.327Z,91.06
2019-02-11T03:49:05.340Z,90.02
2019-02-11T03:50:05.303Z,90.37
2019-02-11T03:51:05.293Z,91.41
2019-02-11T03:52:05.277Z,91.72
2019-02-11T03:53:05.263Z,92.03
2019-02-11T03:54:05.252Z,93.59
2019-02-11T03:55:05.273Z,94.01
2019-02-11T03:56:05.263Z,93.90
2019-02-11T03:57:05.223Z,94.32
2019-02-11T03:58:05.205Z,94.42
2019-02-11T03:59:05.204Z,94.84
2019-02-11T04:00:05.234Z,95.15
2019-02-11T04:01:05.176Z,95.62
2019-02-11T04:02:05.171Z,95.56
2019-02-11T04:03:05.156Z,95.31
2019-02-11T04:04:05.146Z,95.31
2019-02-11T04:05:05.130Z,95.00
2019-02-11T04:06:05.153Z,95.41
2019-02-11T04:07:05.116Z,95.20
2019-02-11T04:08:05.105Z,95.93
2019-02-11T04:09:05.092Z,96.24
2019-02-11T04:10:05.081Z,96.03
2019-02-11T04:11:05.066Z,96.03
2019-02-11T04:12:05.090Z,95.41
2019-02-11T04:13:05.053Z,95.51
2019-02-11T04:14:05.043Z,95.72
2019-02-11T04:15:05.028Z,95.51
2019-02-11T04:16:05.056Z,95.72
2019-02-11T04:17:05.000Z,95.83
2019-02-11T04:18:05.000Z,95.51
2019-02-11T04:19:05.012Z,95.72
2019-02-11T04:20:04.968Z,95.41
2019-02-11T04:21:04.997Z,95.51
2019-02-11T04:22:04.944Z,95.10
2019-02-11T04:23:04.935Z,95.16
2019-02-11T04:24:04.929Z,94.79
2019-02-11T04:25:04.915Z,94.02
2019-02-11T04:26:04.903Z,94.23
2019-02-11T04:27:04.931Z,94.33
2019-02-11T04:28:04.885Z,93.29
2019-02-11T04:29:04.871Z,92.63
2019-02-11T04:30:04.871Z,92.43
2019-02-11T04:31:04.852Z,91.39
2019-02-11T04:32:04.842Z,91.60
2019-02-11T04:33:04.862Z,92.01
2019-02-11T04:34:04.818Z,91.80
2019-02-11T04:35:04.810Z,91.70
2019-02-11T04:36:04.796Z,92.22
2019-02-11T04:37:04.789Z,91.49
2019-02-11T04:38:04.774Z,91.60
2019-02-11T04:39:04.790Z,92.22
2019-02-11T04:40:04.757Z,92.53
2019-02-11T04:41:04.740Z,91.70
2019-02-11T04:42:04.732Z,92.43
2019-02-11T04:43:04.719Z,91.60
2019-02-11T04:44:04.741Z,91.70
2019-02-11T04:45:04.730Z,91.39
2019-02-11T04:46:04.690Z,91.08
2019-02-11T04:47:04.679Z,91.39
2019-02-11T04:48:04.664Z,91.60
2019-02-11T04:49:04.688Z,91.18
2019-02-11T04:50:04.647Z,90.97
2019-02-11T04:51:04.633Z,91.45
2019-02-11T04:52:04.618Z,91.60
2019-02-11T04:53:04.619Z,91.08
2019-02-11T04:54:04.601Z,90.87
2019-02-11T04:55:04.623Z,91.18
2019-02-11T04:56:04.582Z,90.52
2019-02-11T04:57:04.572Z,90.25
2019-02-11T04:58:04.556Z,90.56
2019-02-11T04:59:04.578Z,91.18
2019-02-11T05:00:04.542Z,89.73
2019-02-11T05:01:04.555Z,89.73
2019-02-11T05:02:04.511Z,89.83
2019-02-11T05:03:04.499Z,89.42
2019-02-11T05:04:04.490Z,90.00
2019-02-11T05:05:04.514Z,90.31
2019-02-11T05:06:04.506Z,90.10
2019-02-11T05:07:04.459Z,90.14
2019-02-11T05:08:04.447Z,90.56
2019-02-11T05:09:04.435Z,89.73
2019-02-11T05:10:04.430Z,90.14
2019-02-11T05:11:04.417Z,90.04
2019-02-11T05:12:04.437Z,90.35
2019-02-11T05:13:04.439Z,90.56
2019-02-11T05:14:04.392Z,91.08
2019-02-11T05:15:04.367Z,91.08
2019-02-11T05:16:04.430Z,90.25
2019-02-11T05:17:04.348Z,89.42
2019-02-11T05:18:04.336Z,91.08
2019-02-11T05:19:04.355Z,89.52
2019-02-11T05:20:04.350Z,90.00
2019-02-11T05:21:04.315Z,90.62
2019-02-11T05:22:04.292Z,90.20
2019-02-11T05:23:04.282Z,90.20
2019-02-11T05:24:04.278Z,90.62
2019-02-11T05:25:04.258Z,89.07
2019-02-11T05:26:04.283Z,88.55
2019-02-11T05:27:04.246Z,88.76
2019-02-11T05:28:04.231Z,88.65
2019-02-11T05:29:04.214Z,89.38
2019-02-11T05:30:04.216Z,89.48
2019-02-11T05:31:04.194Z,89.58
2019-02-11T05:32:04.220Z,89.48
2019-02-11T05:33:04.182Z,89.79
2019-02-11T05:34:04.164Z,89.89
2019-02-11T05:35:04.153Z,89.28
2019-02-11T05:36:04.139Z,89.89
2019-02-11T05:37:04.126Z,89.48
2019-02-11T05:38:04.161Z,88.03
2019-02-11T05:39:04.108Z,88.86
2019-02-11T05:40:04.101Z,88.03
2019-02-11T05:41:04.088Z,88.76
2019-02-11T05:42:04.072Z,89.28
2019-02-11T05:43:04.096Z,87.82
2019-02-11T05:44:05.875Z,88.55
2019-02-11T05:45:04.041Z,89.07
2019-02-11T05:46:04.031Z,88.90
2019-02-11T05:47:04.018Z,88.86
2019-02-11T05:48:04.042Z,88.86
2019-02-11T05:49:04.028Z,89.21
2019-02-11T05:50:03.992Z,88.86
2019-02-11T05:51:03.975Z,89.21
2019-02-11T05:52:03.966Z,88.07
2019-02-11T05:53:03.961Z,88.28
2019-02-11T05:54:03.976Z,88.90
2019-02-11T05:55:03.952Z,89.31
2019-02-11T05:56:03.919Z,89.00
2019-02-11T05:57:03.910Z,87.66
2019-02-11T05:58:03.897Z,87.62
2019-02-11T05:59:03.891Z,88.48
2019-02-11T06:00:03.933Z,87.82
2019-02-11T06:01:03.874Z,86.99
2019-02-11T06:02:03.861Z,89.07
2019-02-11T06:03:03.859Z,87.62
2019-02-11T06:04:03.836Z,87.30
2019-02-11T06:05:03.840Z,87.24
2019-02-11T06:06:03.851Z,87.10
2019-02-11T06:07:03.800Z,87.20
2019-02-11T06:08:03.790Z,88.07
2019-02-11T06:09:03.785Z,87.41
2019-02-11T06:10:03.779Z,87.20
2019-02-11T06:11:03.761Z,87.51
2019-02-11T06:12:03.782Z,88.13
2019-02-11T06:13:03.736Z,87.62
2019-02-11T06:14:03.733Z,86.58
2019-02-11T06:15:04.829Z,87.51
2019-02-11T06:16:03.715Z,87.20
2019-02-11T06:17:03.696Z,87.30
2019-02-11T06:18:03.732Z,86.68
2019-02-11T06:19:03.678Z,87.20
2019-02-11T06:20:03.667Z,86.17
2019-02-11T06:21:03.688Z,85.96
2019-02-11T06:22:03.646Z,86.17
2019-02-11T06:23:03.641Z,86.37
2019-02-11T06:24:03.618Z,86.17
2019-02-11T06:25:03.611Z,86.17
2019-02-11T06:26:03.597Z,87.10
2019-02-11T06:27:03.633Z,87.82
2019-02-11T06:28:03.589Z,87.72
2019-02-11T06:29:03.561Z,87.10
2019-02-11T06:30:03.550Z,87.20
2019-02-11T06:31:03.545Z,87.30
2019-02-11T06:32:03.546Z,87.10
2019-02-11T06:33:03.551Z,86.99
2019-02-11T06:34:03.517Z,87.10
2019-02-11T06:35:03.521Z,86.58
2019-02-11T06:36:11.741Z,86.37
2019-02-11T06:37:04.478Z,86.68
2019-02-11T06:38:03.465Z,86.58
2019-02-11T06:39:03.487Z,86.47
2019-02-11T06:40:03.450Z,85.96
2019-02-11T06:41:03.432Z,86.27
2019-02-11T06:42:03.418Z,85.96
2019-02-11T06:43:03.410Z,87.41
2019-02-11T06:44:03.400Z,86.99
2019-02-11T06:45:03.430Z,86.37
2019-02-11T06:46:03.375Z,86.93
2019-02-11T06:47:03.375Z,85.75
2019-02-11T06:48:03.357Z,85.24
2019-02-11T06:49:03.345Z,85.86
2019-02-11T06:50:03.343Z,84.82
2019-02-11T06:51:03.356Z,85.55
2019-02-11T06:52:03.316Z,85.34
2019-02-11T06:53:03.348Z,85.13
2019-02-11T06:54:03.325Z,85.75
2019-02-11T06:55:03.280Z,86.07
2019-02-11T06:56:03.309Z,84.30
2019-02-11T06:57:04.292Z,84.92
2019-02-11T06:58:03.247Z,84.61
2019-02-11T06:59:03.246Z,84.82
2019-02-11T07:00:03.227Z,84.72
2019-02-11T07:01:03.243Z,84.61
2019-02-11T07:02:03.240Z,84.51
2019-02-11T07:03:03.206Z,83.78
2019-02-11T07:04:03.183Z,83.85
2019-02-11T07:05:03.214Z,83.99
2019-02-11T07:06:03.193Z,83.99
2019-02-11T07:07:03.156Z,85.75
2019-02-11T07:08:03.157Z,84.41
2019-02-11T07:09:03.126Z,83.12
2019-02-11T07:10:03.123Z,84.37
2019-02-11T07:11:03.150Z,82.50
2019-02-11T07:12:03.121Z,82.50
2019-02-11T07:13:03.092Z,82.81
2019-02-11T07:14:03.069Z,82.60
2019-02-11T07:15:03.097Z,83.54
2019-02-11T07:16:03.060Z,82.65
2019-02-11T07:17:03.048Z,82.23
2019-02-11T07:18:03.029Z,83.44
2019-02-11T07:19:03.018Z,84.51
2019-02-11T07:20:03.037Z,83.16
2019-02-11T07:21:02.998Z,82.75
2019-02-11T07:22:02.989Z,82.60
2019-02-11T07:23:02.982Z,82.60
2019-02-11T07:24:02.968Z,81.68
2019-02-11T07:25:02.956Z,81.78
2019-02-11T07:26:02.981Z,82.71
2019-02-11T07:27:02.955Z,83.02
2019-02-11T07:28:02.926Z,82.60
2019-02-11T07:29:02.909Z,82.71
2019-02-11T07:30:02.938Z,83.02
2019-02-11T07:31:02.897Z,82.19
2019-02-11T07:32:02.881Z,82.71
2019-02-11T07:33:02.865Z,81.68
2019-02-11T07:34:02.855Z,81.88
2019-02-11T07:35:02.857Z,82.19
2019-02-11T07:36:02.865Z,81.57
2019-02-11T07:37:02.830Z,81.88
2019-02-11T07:38:02.841Z,82.71
2019-02-11T07:39:02.807Z,80.95
2019-02-11T07:40:04.073Z,80.33
2019-02-11T07:41:02.775Z,80.81
2019-02-11T07:42:04.670Z,80.64
2019-02-11T07:43:02.790Z,81.57
2019-02-11T07:44:02.762Z,81.26
2019-02-11T07:45:02.776Z,80.64
2019-02-11T07:46:02.739Z,81.16
2019-02-11T07:47:02.755Z,81.54
2019-02-11T07:48:02.702Z,81.02
2019-02-11T07:49:02.698Z,81.05
2019-02-11T07:50:02.707Z,81.78
2019-02-11T07:51:02.721Z,81.02
2019-02-11T07:52:02.659Z,81.78
2019-02-11T07:53:02.670Z,81.64
2019-02-11T07:54:02.637Z,81.16
2019-02-11T07:55:02.676Z,81.12
2019-02-11T07:56:02.629Z,80.02
2019-02-11T07:57:02.625Z,81.54
2019-02-11T07:58:02.607Z,81.74
2019-02-11T07:59:02.627Z,81.57
2019-02-11T08:00:02.631Z,81.68
2019-02-11T08:01:02.577Z,82.29
2019-02-11T08:02:02.569Z,81.47
2019-02-11T08:03:02.549Z,81.54
2019-02-11T08:04:02.552Z,81.54
2019-02-11T08:05:02.541Z,82.57
2019-02-11T08:06:02.573Z,82.71
2019-02-11T08:07:02.516Z,81.68
2019-02-11T08:08:02.503Z,81.16
2019-02-11T08:09:02.495Z,81.43
2019-02-11T08:10:02.474Z,82.26
2019-02-11T08:11:02.532Z,81.95
2019-02-11T08:12:02.450Z,81.23
2019-02-11T08:13:02.439Z,81.12
2019-02-11T08:14:02.433Z,81.54
2019-02-11T08:15:02.438Z,81.54
2019-02-11T08:16:02.426Z,81.64
2019-02-11T08:17:02.487Z,81.54
2019-02-11T08:18:02.392Z,81.64
2019-02-11T08:19:02.390Z,81.95
2019-02-11T08:20:02.429Z,82.67
2019-02-11T08:21:02.360Z,81.74
2019-02-11T08:22:02.363Z,81.23
2019-02-11T08:23:11.065Z,81.54
2019-02-11T08:24:03.321Z,81.43
2019-02-11T08:25:02.347Z,81.54
2019-02-11T08:26:02.315Z,81.43
2019-02-11T08:27:02.302Z,81.43
2019-02-11T08:28:02.277Z,81.12
2019-02-11T08:29:02.266Z,81.74
2019-02-11T08:30:02.256Z,81.12
2019-02-11T08:31:02.298Z,80.60
2019-02-11T08:32:02.243Z,81.49
2019-02-11T08:33:02.241Z,80.98
2019-02-11T08:34:02.213Z,81.39
2019-02-11T08:35:02.243Z,81.29
2019-02-11T08:36:02.200Z,80.26
2019-02-11T08:37:02.180Z,81.49
2019-02-11T08:38:02.169Z,81.39
2019-02-11T08:39:02.287Z,80.53
2019-02-11T08:40:02.150Z,81.29
2019-02-11T08:41:02.174Z,80.74
2019-02-11T08:42:02.125Z,81.15
2019-02-11T08:43:02.113Z,80.67
2019-02-11T08:44:02.160Z,81.15
2019-02-11T08:45:02.128Z,80.84
2019-02-11T08:46:02.088Z,79.70
2019-02-11T08:47:02.095Z,81.46
2019-02-11T08:48:02.063Z,80.01
2019-02-11T08:49:02.052Z,80.63
2019-02-11T08:50:02.069Z,79.80
2019-02-11T08:51:02.074Z,79.49
2019-02-11T08:52:02.023Z,79.70
2019-02-11T08:53:02.022Z,79.74
2019-02-11T08:54:02.036Z,79.91
2019-02-11T08:55:01.998Z,80.63
2019-02-11T08:56:03.433Z,79.70
2019-02-11T08:57:01.968Z,79.74
2019-02-11T08:58:01.952Z,79.19
2019-02-11T08:59:01.978Z,79.70
2019-02-11T09:00:01.938Z,80.01
2019-02-11T09:01:01.915Z,79.74
2019-02-11T09:02:01.905Z,81.09
2019-02-11T09:03:01.911Z,81.19
2019-02-11T09:04:02.021Z,81.02
2019-02-11T09:05:01.879Z,79.74
2019-02-11T09:06:01.879Z,80.67
2019-02-11T09:07:01.880Z,79.84
2019-02-11T09:08:01.860Z,79.94
2019-02-11T09:09:01.834Z,79.91
2019-02-11T09:10:01.891Z,79.91
2019-02-11T09:11:01.829Z,80.01
2019-02-11T09:12:01.834Z,79.70
2019-02-11T09:13:01.809Z,79.08
2019-02-11T09:14:01.784Z,78.88
2019-02-11T09:15:01.763Z,79.05
2019-02-11T09:16:01.760Z,78.80
2019-02-11T09:17:09.844Z,77.77
2019-02-11T09:18:02.764Z,77.94
2019-02-11T09:19:01.739Z,77.56
2019-02-11T09:20:01.714Z,78.18
2019-02-11T09:21:01.701Z,77.46
2019-02-11T09:22:07.329Z,77.25
2019-02-11T09:23:02.687Z,77.77
2019-02-11T09:24:01.698Z,77.36
2019-02-11T09:25:01.665Z,76.94
2019-02-11T09:26:01.655Z,77.25
2019-02-11T09:27:01.677Z,77.15
2019-02-11T09:28:01.636Z,76.53
2019-02-11T09:29:01.640Z,76.43
2019-02-11T09:30:01.604Z,76.43
2019-02-11T09:31:01.592Z,75.32
2019-02-11T09:32:01.595Z,75.91
2019-02-11T09:33:01.603Z,76.01
2019-02-11T09:34:01.567Z,76.43
2019-02-11T09:35:01.607Z,76.22
2019-02-11T09:36:03.351Z,75.95
2019-02-11T09:37:01.561Z,76.87
2019-02-11T09:38:01.526Z,76.36
2019-02-11T09:39:01.505Z,77.08
2019-02-11T09:40:01.499Z,77.08
2019-02-11T09:41:01.496Z,77.25
2019-02-11T09:42:01.480Z,76.43
2019-02-11T09:43:01.494Z,76.64
2019-02-11T09:44:01.460Z,74.98
2019-02-11T09:45:01.492Z,75.12
2019-02-11T09:46:03.855Z,76.15
2019-02-11T09:47:01.454Z,74.91
2019-02-11T09:48:01.409Z,75.43
2019-02-11T09:49:01.423Z,75.74
2019-02-11T09:50:01.393Z,75.95
2019-02-11T09:51:01.402Z,76.15
2019-02-11T09:52:01.417Z,75.29
2019-02-11T09:53:01.357Z,75.01
2019-02-11T09:54:01.345Z,75.09
2019-02-11T09:55:01.333Z,75.39
2019-02-11T09:56:01.381Z,75.29
2019-02-11T09:57:01.316Z,74.67
2019-02-11T09:58:01.300Z,74.88
2019-02-11T09:59:01.299Z,74.77
2019-02-11T10:00:01.290Z,74.77
2019-02-11T10:01:01.283Z,74.22
2019-02-11T10:02:01.293Z,74.05
2019-02-11T10:03:01.277Z,74.36
2019-02-11T10:04:01.238Z,74.46
2019-02-11T10:05:01.286Z,74.57
2019-02-11T10:06:01.216Z,74.46
2019-02-11T10:07:01.285Z,74.22
2019-02-11T10:08:01.196Z,73.95
2019-02-11T10:09:01.182Z,74.57
2019-02-11T10:10:01.173Z,74.05
2019-02-11T10:11:01.172Z,73.12
2019-02-11T10:12:01.148Z,74.15
2019-02-11T10:13:01.169Z,74.05
2019-02-11T10:14:01.162Z,73.95
2019-02-11T10:15:01.122Z,74.12
2019-02-11T10:16:01.130Z,72.67
2019-02-11T10:17:01.095Z,72.67
2019-02-11T10:18:01.118Z,71.95
2019-02-11T10:19:01.086Z,71.78
2019-02-11T10:20:01.066Z,72.99
2019-02-11T10:21:01.069Z,72.78
2019-02-11T10:22:01.135Z,72.88
2019-02-11T10:23:01.084Z,73.29
2019-02-11T10:24:01.019Z,73.88
2019-02-11T10:25:01.013Z,72.78
2019-02-11T10:26:00.999Z,73.19
2019-02-11T10:27:00.997Z,72.78
2019-02-11T10:28:01.005Z,72.54
2019-02-11T10:29:00.971Z,73.98
2019-02-11T10:30:00.962Z,72.64
2019-02-11T10:31:00.945Z,72.74
2019-02-11T10:32:00.934Z,71.78
2019-02-11T10:33:00.952Z,72.23
2019-02-11T10:34:00.914Z,72.81
2019-02-11T10:35:00.913Z,72.61
2019-02-11T10:36:00.936Z,72.19
2019-02-11T10:37:00.878Z,72.61
2019-02-11T10:38:00.941Z,72.50
2019-02-11T10:39:00.858Z,72.61
2019-02-11T10:40:00.848Z,72.61
2019-02-11T10:41:00.862Z,72.61
2019-02-11T10:42:00.823Z,72.67
2019-02-11T10:43:00.815Z,71.68
2019-02-11T10:44:00.849Z,72.30
2019-02-11T10:45:00.790Z,72.58
2019-02-11T10:46:00.799Z,70.68
2019-02-11T10:47:00.779Z,69.65
2019-02-11T10:48:00.823Z,70.82
2019-02-11T10:49:00.754Z,70.92
2019-02-11T10:50:00.773Z,70.72
2019-02-11T10:51:00.744Z,71.75
2019-02-11T10:52:00.735Z,71.44
2019-02-11T10:53:00.716Z,72.47
2019-02-11T10:54:00.691Z,70.92
2019-02-11T10:55:00.690Z,71.64
2019-02-11T10:56:00.752Z,71.55
2019-02-11T10:57:00.665Z,71.37
2019-02-11T10:58:00.659Z,72.19
2019-02-11T10:59:00.661Z,72.40
2019-02-11T11:00:00.633Z,72.50
2019-02-11T11:01:00.618Z,72.19
2019-02-11T11:02:00.687Z,72.09
2019-02-11T11:03:00.628Z,72.40
2019-02-11T11:04:00.606Z,71.68
2019-02-11T11:05:00.580Z,72.50
2019-02-11T11:06:00.568Z,71.16
2019-02-11T11:07:00.550Z,70.44
2019-02-11T11:08:00.541Z,71.99
2019-02-11T11:09:00.565Z,71.75
2019-02-11T11:10:00.585Z,70.62
2019-02-11T11:11:00.511Z,70.75
2019-02-11T11:12:00.538Z,70.41
2019-02-11T11:13:00.497Z,71.03
2019-02-11T11:14:00.478Z,70.86
2019-02-11T11:15:00.475Z,70.51
2019-02-11T11:16:00.463Z,71.03
2019-02-11T11:17:00.453Z,70.72
2019-02-11T11:18:00.473Z,70.62
2019-02-11T11:19:00.427Z,70.89
2019-02-11T11:20:00.447Z,70.92
2019-02-11T11:21:00.402Z,71.55
2019-02-11T11:22:00.423Z,70.92
2019-02-11T11:23:00.403Z,70.89
2019-02-11T11:24:00.369Z,71.13
2019-02-11T11:25:00.428Z,70.20
2019-02-11T11:26:00.359Z,71.30
2019-02-11T11:27:00.387Z,70.68
2019-02-11T11:28:00.329Z,69.55
2019-02-11T11:29:00.323Z,69.48
2019-02-11T11:30:00.365Z,70.68
2019-02-11T11:31:00.303Z,69.55
2019-02-11T11:32:00.298Z,69.45
2019-02-11T11:33:00.310Z,69.65
2019-02-11T11:34:00.265Z,69.62
2019-02-11T11:35:00.296Z,69.73
2019-02-11T11:36:00.273Z,69.73
2019-02-11T11:37:00.229Z,68.80
2019-02-11T11:38:00.217Z,69.62
2019-02-11T11:39:00.216Z,70.04
2019-02-11T11:40:00.258Z,69.18
2019-02-11T11:41:00.185Z,68.87
2019-02-11T11:42:00.199Z,69.49
2019-02-11T11:43:00.160Z,68.46
2019-02-11T11:44:00.150Z,69.59
2019-02-11T11:45:00.180Z,68.35
2019-02-11T11:46:00.172Z,68.77
2019-02-11T11:47:00.146Z,68.98
2019-02-11T11:48:00.154Z,69.70
2019-02-11T11:49:00.121Z,69.28
2019-02-11T11:50:00.146Z,69.07
2019-02-11T11:51:00.085Z,68.66
2019-02-11T11:52:00.076Z,68.66
2019-02-11T11:53:00.056Z,69.70
2019-02-11T11:54:00.090Z,68.59
2019-02-11T11:55:00.055Z,69.01
2019-02-11T11:56:02.225Z,69.35
2019-02-11T11:57:00.029Z,69.73
2019-02-11T11:58:00.009Z,69.42
2019-02-11T11:58:59.998Z,69.70
2019-02-11T12:00:00.012Z,69.42
2019-02-11T12:00:59.973Z,69.01
2019-02-11T12:02:00.004Z,68.25
2019-02-11T12:03:03.523Z,68.08
2019-02-11T12:03:59.958Z,68.35
2019-02-11T12:04:59.930Z,68.56
2019-02-11T12:05:59.942Z,68.46
2019-02-11T12:06:59.907Z,68.05
2019-02-11T12:07:59.936Z,68.56
2019-02-11T12:08:59.902Z,67.33
2019-02-11T12:09:59.881Z,67.53
2019-02-11T12:10:59.859Z,68.56
2019-02-11T12:11:59.856Z,67.63
2019-02-11T12:12:59.866Z,67.43
2019-02-11T12:13:59.875Z,67.74
2019-02-11T12:14:59.823Z,67.50
2019-02-11T12:15:59.884Z,67.33
2019-02-11T12:17:02.790Z,67.53
2019-02-11T12:17:59.807Z,67.12
2019-02-11T12:18:59.779Z,66.50
2019-02-11T12:19:59.758Z,66.40
2019-02-11T12:20:59.759Z,66.78
2019-02-11T12:21:59.773Z,66.99
2019-02-11T12:22:59.737Z,66.78
2019-02-11T12:23:59.724Z,67.19
2019-02-11T12:24:59.728Z,67.22
2019-02-11T12:25:59.694Z,67.81
2019-02-11T12:26:59.723Z,66.47
2019-02-11T12:27:59.688Z,65.86
2019-02-11T12:28:59.670Z,66.99
2019-02-11T12:29:59.670Z,66.99
2019-02-11T12:30:59.658Z,66.99
2019-02-11T12:31:59.635Z,67.50
2019-02-11T12:32:59.655Z,67.81
2019-02-11T12:33:59.622Z,67.81
2019-02-11T12:34:59.603Z,67.53
2019-02-11T12:35:59.600Z,68.46
2019-02-11T12:36:59.612Z,68.46
2019-02-11T12:37:59.562Z,67.74
2019-02-11T12:38:59.555Z,68.56
2019-02-11T12:39:59.546Z,68.46
2019-02-11T12:40:59.541Z,68.56
2019-02-11T12:41:59.555Z,68.56
2019-02-11T12:42:59.523Z,66.91
2019-02-11T12:43:59.506Z,67.74
2019-02-11T12:44:59.514Z,68.05
2019-02-11T12:45:59.479Z,67.43
2019-02-11T12:47:13.186Z,67.43
2019-02-11T12:48:00.535Z,67.94
2019-02-11T12:49:01.688Z,67.43
2019-02-11T12:49:59.438Z,67.71
2019-02-11T12:50:59.462Z,66.67
2019-02-11T12:51:59.440Z,66.78